sensor_id;sensor_type;location;lat;lon;timestamp;P1;durP1;ratioP1;P2;durP2;ratioP2
1402;SDS011;696;48.546;9.896;2023-11-18T00:00:21;1.52;;;1.15;;
1402;SDS011;696;48.546;9.896;2023-11-18T00:02:47;1.42;;;0.95;;
1402;SDS011;696;48.546;9.896;2023-11-18T00:05:13;0.80;;;0.80;;
1402;SDS011;696;48.546;9.896;2023-11-18T00:07:39;1.25;;;1.10;;
1402;SDS011;696;48.546;9.896;2023-11-18T00:10:04;2.22;;;1.38;;
1402;SDS011;696;48.546;9.896;2023-11-18T00:12:31;1.50;;;1.13;;
1402;SDS011;696;48.546;9.896;2023-11-18T00:14:56;2.42;;;1.33;;
1402;SDS011;696;48.546;9.896;2023-11-18T00:17:22;3.00;;;1.20;;
1402;SDS011;696;48.546;9.896;2023-11-18T00:19:47;1.00;;;1.00;;
1402;SDS011;696;48.546;9.896;2023-11-18T00:22:13;1.17;;;1.08;;
1402;SDS011;696;48.546;9.896;2023-11-18T00:24:38;1.33;;;1.23;;
1402;SDS011;696;48.546;9.896;2023-11-18T00:27:04;1.88;;;1.52;;
1402;SDS011;696;48.546;9.896;2023-11-18T00:29:34;4.03;;;2.00;;
1402;SDS011;696;48.546;9.896;2023-11-18T00:32:00;1.38;;;1.27;;
1402;SDS011;696;48.546;9.896;2023-11-18T00:34:26;1.45;;;1.35;;
1402;SDS011;696;48.546;9.896;2023-11-18T00:36:51;1.88;;;1.60;;
1402;SDS011;696;48.546;9.896;2023-11-18T00:39:17;2.42;;;1.70;;
1402;SDS011;696;48.546;9.896;2023-11-18T00:41:43;2.00;;;1.83;;
1402;SDS011;696;48.546;9.896;2023-11-18T00:44:08;2.00;;;1.67;;
1402;SDS011;696;48.546;9.896;2023-11-18T00:46:34;1.92;;;1.75;;
1402;SDS011;696;48.546;9.896;2023-11-18T00:49:01;2.63;;;2.30;;
1402;SDS011;696;48.546;9.896;2023-11-18T00:51:27;2.20;;;1.95;;
1402;SDS011;696;48.546;9.896;2023-11-18T00:53:52;3.50;;;2.53;;
1402;SDS011;696;48.546;9.896;2023-11-18T00:56:20;2.47;;;2.28;;
1402;SDS011;696;48.546;9.896;2023-11-18T00:58:47;3.78;;;2.67;;
1402;SDS011;696;48.546;9.896;2023-11-18T01:01:13;2.28;;;2.08;;
1402;SDS011;696;48.546;9.896;2023-11-18T01:03:38;4.22;;;2.88;;
1402;SDS011;696;48.546;9.896;2023-11-18T01:06:04;5.35;;;2.90;;
1402;SDS011;696;48.546;9.896;2023-11-18T01:08:31;4.25;;;3.25;;
1402;SDS011;696;48.546;9.896;2023-11-18T01:10:56;4.88;;;3.03;;
1402;SDS011;696;48.546;9.896;2023-11-18T01:13:21;4.93;;;3.78;;
1402;SDS011;696;48.546;9.896;2023-11-18T01:15:48;5.03;;;3.47;;
1402;SDS011;696;48.546;9.896;2023-11-18T01:18:13;6.25;;;3.70;;
1402;SDS011;696;48.546;9.896;2023-11-18T01:20:38;5.53;;;3.75;;
1402;SDS011;696;48.546;9.896;2023-11-18T01:23:04;4.78;;;3.20;;
1402;SDS011;696;48.546;9.896;2023-11-18T01:25:30;3.90;;;2.95;;
1402;SDS011;696;48.546;9.896;2023-11-18T01:27:55;5.22;;;3.55;;
1402;SDS011;696;48.546;9.896;2023-11-18T01:30:20;6.50;;;4.63;;
1402;SDS011;696;48.546;9.896;2023-11-18T01:32:46;7.07;;;4.57;;
1402;SDS011;696;48.546;9.896;2023-11-18T01:35:11;7.55;;;3.63;;
1402;SDS011;696;48.546;9.896;2023-11-18T01:37:37;5.38;;;3.72;;
1402;SDS011;696;48.546;9.896;2023-11-18T01:40:03;7.05;;;4.38;;
1402;SDS011;696;48.546;9.896;2023-11-18T01:42:32;8.15;;;3.88;;
1402;SDS011;696;48.546;9.896;2023-11-18T01:44:58;5.07;;;3.67;;
1402;SDS011;696;48.546;9.896;2023-11-18T01:47:26;4.50;;;3.75;;
1402;SDS011;696;48.546;9.896;2023-11-18T01:49:52;10.60;;;4.20;;
1402;SDS011;696;48.546;9.896;2023-11-18T01:52:17;5.85;;;4.00;;
1402;SDS011;696;48.546;9.896;2023-11-18T01:54:43;5.55;;;3.95;;
1402;SDS011;696;48.546;9.896;2023-11-18T01:57:09;4.95;;;3.70;;
1402;SDS011;696;48.546;9.896;2023-11-18T01:59:35;6.20;;;3.35;;
1402;SDS011;696;48.546;9.896;2023-11-18T02:02:02;6.18;;;4.10;;
1402;SDS011;696;48.546;9.896;2023-11-18T02:04:28;7.93;;;4.45;;
1402;SDS011;696;48.546;9.896;2023-11-18T02:06:54;8.40;;;4.03;;
1402;SDS011;696;48.546;9.896;2023-11-18T02:09:21;6.07;;;4.40;;
1402;SDS011;696;48.546;9.896;2023-11-18T02:12:02;5.17;;;4.07;;
1402;SDS011;696;48.546;9.896;2023-11-18T02:14:34;14.13;;;4.53;;
1402;SDS011;696;48.546;9.896;2023-11-18T02:17:03;7.07;;;4.78;;
1402;SDS011;696;48.546;9.896;2023-11-18T02:19:29;8.90;;;4.93;;
1402;SDS011;696;48.546;9.896;2023-11-18T02:21:55;4.35;;;3.83;;
1402;SDS011;696;48.546;9.896;2023-11-18T02:24:25;6.05;;;4.60;;
1402;SDS011;696;48.546;9.896;2023-11-18T02:26:58;7.03;;;4.07;;
1402;SDS011;696;48.546;9.896;2023-11-18T02:29:25;9.75;;;4.38;;
1402;SDS011;696;48.546;9.896;2023-11-18T02:31:52;6.57;;;4.72;;
1402;SDS011;696;48.546;9.896;2023-11-18T02:34:19;7.53;;;4.32;;
1402;SDS011;696;48.546;9.896;2023-11-18T02:36:48;15.50;;;5.00;;
1402;SDS011;696;48.546;9.896;2023-11-18T02:39:27;7.70;;;4.95;;
1402;SDS011;696;48.546;9.896;2023-11-18T02:42:03;9.30;;;5.00;;
1402;SDS011;696;48.546;9.896;2023-11-18T02:44:29;7.75;;;5.10;;
1402;SDS011;696;48.546;9.896;2023-11-18T02:46:57;7.53;;;4.68;;
1402;SDS011;696;48.546;9.896;2023-11-18T02:49:29;5.78;;;3.90;;
1402;SDS011;696;48.546;9.896;2023-11-18T02:51:55;6.88;;;3.90;;
1402;SDS011;696;48.546;9.896;2023-11-18T02:54:20;3.95;;;3.20;;
1402;SDS011;696;48.546;9.896;2023-11-18T02:56:46;6.25;;;3.75;;
1402;SDS011;696;48.546;9.896;2023-11-18T02:59:11;4.07;;;2.92;;
1402;SDS011;696;48.546;9.896;2023-11-18T03:01:38;7.70;;;3.38;;
1402;SDS011;696;48.546;9.896;2023-11-18T03:04:06;4.03;;;3.08;;
1402;SDS011;696;48.546;9.896;2023-11-18T03:06:32;5.65;;;2.90;;
1402;SDS011;696;48.546;9.896;2023-11-18T03:08:57;5.55;;;2.92;;
1402;SDS011;696;48.546;9.896;2023-11-18T03:11:23;3.17;;;2.65;;
1402;SDS011;696;48.546;9.896;2023-11-18T03:13:48;5.68;;;2.90;;
1402;SDS011;696;48.546;9.896;2023-11-18T03:16:14;4.20;;;2.55;;
1402;SDS011;696;48.546;9.896;2023-11-18T03:18:40;3.45;;;2.55;;
1402;SDS011;696;48.546;9.896;2023-11-18T03:21:12;2.92;;;2.42;;
1402;SDS011;696;48.546;9.896;2023-11-18T03:23:41;4.63;;;1.92;;
1402;SDS011;696;48.546;9.896;2023-11-18T03:26:07;1.90;;;1.52;;
1402;SDS011;696;48.546;9.896;2023-11-18T03:28:33;4.90;;;2.10;;
1402;SDS011;696;48.546;9.896;2023-11-18T03:30:58;1.90;;;1.65;;
1402;SDS011;696;48.546;9.896;2023-11-18T03:33:24;2.00;;;1.80;;
1402;SDS011;696;48.546;9.896;2023-11-18T03:35:49;2.75;;;2.03;;
1402;SDS011;696;48.546;9.896;2023-11-18T03:38:15;2.13;;;1.70;;
1402;SDS011;696;48.546;9.896;2023-11-18T03:40:42;2.08;;;1.88;;
1402;SDS011;696;48.546;9.896;2023-11-18T03:43:10;1.95;;;1.58;;
1402;SDS011;696;48.546;9.896;2023-11-18T03:45:37;2.25;;;1.85;;
1402;SDS011;696;48.546;9.896;2023-11-18T03:48:03;2.42;;;2.22;;
1402;SDS011;696;48.546;9.896;2023-11-18T03:50:29;1.75;;;1.42;;
1402;SDS011;696;48.546;9.896;2023-11-18T03:52:54;2.72;;;2.05;;
1402;SDS011;696;48.546;9.896;2023-11-18T03:55:20;4.47;;;1.80;;
1402;SDS011;696;48.546;9.896;2023-11-18T03:57:45;3.25;;;1.90;;
1402;SDS011;696;48.546;9.896;2023-11-18T04:00:11;2.20;;;1.90;;
1402;SDS011;696;48.546;9.896;2023-11-18T04:02:37;2.78;;;2.10;;
1402;SDS011;696;48.546;9.896;2023-11-18T04:05:05;2.15;;;1.92;;
1402;SDS011;696;48.546;9.896;2023-11-18T04:07:30;2.50;;;2.05;;
1402;SDS011;696;48.546;9.896;2023-11-18T04:09:56;5.22;;;2.72;;
1402;SDS011;696;48.546;9.896;2023-11-18T04:12:21;2.20;;;1.98;;
1402;SDS011;696;48.546;9.896;2023-11-18T04:14:49;2.55;;;2.35;;
1402;SDS011;696;48.546;9.896;2023-11-18T04:17:14;2.85;;;2.30;;
1402;SDS011;696;48.546;9.896;2023-11-18T04:19:39;2.92;;;2.25;;
1402;SDS011;696;48.546;9.896;2023-11-18T04:22:05;2.20;;;1.90;;
1402;SDS011;696;48.546;9.896;2023-11-18T04:24:30;2.45;;;2.10;;
1402;SDS011;696;48.546;9.896;2023-11-18T04:26:56;2.17;;;1.98;;
1402;SDS011;696;48.546;9.896;2023-11-18T04:29:22;3.72;;;2.50;;
1402;SDS011;696;48.546;9.896;2023-11-18T04:31:48;7.80;;;1.95;;
1402;SDS011;696;48.546;9.896;2023-11-18T04:34:13;2.40;;;2.20;;
1402;SDS011;696;48.546;9.896;2023-11-18T04:36:40;2.60;;;2.15;;
1402;SDS011;696;48.546;9.896;2023-11-18T04:39:06;2.78;;;2.30;;
1402;SDS011;696;48.546;9.896;2023-11-18T04:41:32;2.65;;;2.00;;
1402;SDS011;696;48.546;9.896;2023-11-18T04:43:57;2.67;;;2.33;;
1402;SDS011;696;48.546;9.896;2023-11-18T04:46:23;3.55;;;2.42;;
1402;SDS011;696;48.546;9.896;2023-11-18T04:48:48;3.70;;;2.58;;
1402;SDS011;696;48.546;9.896;2023-11-18T04:51:13;3.13;;;2.60;;
1402;SDS011;696;48.546;9.896;2023-11-18T04:53:38;6.35;;;2.75;;
1402;SDS011;696;48.546;9.896;2023-11-18T04:56:04;3.03;;;2.38;;
1402;SDS011;696;48.546;9.896;2023-11-18T04:58:31;3.20;;;2.80;;
1402;SDS011;696;48.546;9.896;2023-11-18T05:00:56;3.47;;;2.92;;
1402;SDS011;696;48.546;9.896;2023-11-18T05:03:21;3.97;;;2.78;;
1402;SDS011;696;48.546;9.896;2023-11-18T05:05:49;5.10;;;3.00;;
1402;SDS011;696;48.546;9.896;2023-11-18T05:08:21;3.25;;;2.92;;
1402;SDS011;696;48.546;9.896;2023-11-18T05:10:47;4.80;;;3.25;;
1402;SDS011;696;48.546;9.896;2023-11-18T05:13:13;5.47;;;3.25;;
1402;SDS011;696;48.546;9.896;2023-11-18T05:15:41;4.25;;;2.95;;
1402;SDS011;696;48.546;9.896;2023-11-18T05:18:13;5.50;;;3.25;;
1402;SDS011;696;48.546;9.896;2023-11-18T05:20:40;4.53;;;3.28;;
1402;SDS011;696;48.546;9.896;2023-11-18T05:23:06;6.07;;;4.13;;
1402;SDS011;696;48.546;9.896;2023-11-18T05:25:31;5.90;;;3.58;;
1402;SDS011;696;48.546;9.896;2023-11-18T05:27:58;6.80;;;3.88;;
1402;SDS011;696;48.546;9.896;2023-11-18T05:30:23;4.97;;;3.75;;
1402;SDS011;696;48.546;9.896;2023-11-18T05:32:49;6.60;;;4.05;;
1402;SDS011;696;48.546;9.896;2023-11-18T05:35:14;4.38;;;3.50;;
1402;SDS011;696;48.546;9.896;2023-11-18T05:37:39;6.20;;;4.38;;
1402;SDS011;696;48.546;9.896;2023-11-18T05:40:06;5.63;;;4.32;;
1402;SDS011;696;48.546;9.896;2023-11-18T05:42:35;6.72;;;4.00;;
1402;SDS011;696;48.546;9.896;2023-11-18T05:45:02;7.63;;;4.78;;
1402;SDS011;696;48.546;9.896;2023-11-18T05:47:29;6.78;;;4.32;;
1402;SDS011;696;48.546;9.896;2023-11-18T05:49:54;6.38;;;4.35;;
1402;SDS011;696;48.546;9.896;2023-11-18T05:52:20;7.30;;;4.38;;
1402;SDS011;696;48.546;9.896;2023-11-18T05:54:46;7.13;;;5.00;;
1402;SDS011;696;48.546;9.896;2023-11-18T05:57:15;6.20;;;4.70;;
1402;SDS011;696;48.546;9.896;2023-11-18T05:59:41;9.32;;;4.75;;
1402;SDS011;696;48.546;9.896;2023-11-18T06:02:07;8.63;;;4.63;;
1402;SDS011;696;48.546;9.896;2023-11-18T06:04:33;7.15;;;4.63;;
1402;SDS011;696;48.546;9.896;2023-11-18T06:06:58;6.18;;;4.55;;
1402;SDS011;696;48.546;9.896;2023-11-18T06:09:24;7.30;;;4.50;;
1402;SDS011;696;48.546;9.896;2023-11-18T06:11:53;5.97;;;4.28;;
1402;SDS011;696;48.546;9.896;2023-11-18T06:14:19;6.20;;;4.22;;
1402;SDS011;696;48.546;9.896;2023-11-18T06:16:46;5.47;;;4.07;;
1402;SDS011;696;48.546;9.896;2023-11-18T06:19:13;5.95;;;3.80;;
1402;SDS011;696;48.546;9.896;2023-11-18T06:21:39;6.55;;;4.60;;
1402;SDS011;696;48.546;9.896;2023-11-18T06:24:05;6.40;;;4.72;;
1402;SDS011;696;48.546;9.896;2023-11-18T06:26:31;6.53;;;4.65;;
1402;SDS011;696;48.546;9.896;2023-11-18T06:28:57;5.40;;;4.40;;
1402;SDS011;696;48.546;9.896;2023-11-18T06:31:22;6.82;;;4.47;;
1402;SDS011;696;48.546;9.896;2023-11-18T06:33:49;7.03;;;4.97;;
1402;SDS011;696;48.546;9.896;2023-11-18T06:38:41;5.97;;;4.93;;
1402;SDS011;696;48.546;9.896;2023-11-18T06:41:06;6.28;;;4.95;;
1402;SDS011;696;48.546;9.896;2023-11-18T06:43:37;9.07;;;4.93;;
1402;SDS011;696;48.546;9.896;2023-11-18T06:46:32;6.15;;;4.57;;
1402;SDS011;696;48.546;9.896;2023-11-18T06:49:02;6.82;;;4.55;;
1402;SDS011;696;48.546;9.896;2023-11-18T06:51:32;6.75;;;4.50;;
1402;SDS011;696;48.546;9.896;2023-11-18T06:54:00;5.93;;;4.40;;
1402;SDS011;696;48.546;9.896;2023-11-18T06:56:29;6.43;;;4.57;;
1402;SDS011;696;48.546;9.896;2023-11-18T06:58:55;10.60;;;5.45;;
1402;SDS011;696;48.546;9.896;2023-11-18T07:01:20;6.47;;;5.13;;
1402;SDS011;696;48.546;9.896;2023-11-18T07:03:46;9.45;;;4.90;;
1402;SDS011;696;48.546;9.896;2023-11-18T07:06:18;10.00;;;4.55;;
1402;SDS011;696;48.546;9.896;2023-11-18T07:08:51;7.15;;;5.22;;
1402;SDS011;696;48.546;9.896;2023-11-18T07:11:17;5.53;;;4.68;;
1402;SDS011;696;48.546;9.896;2023-11-18T07:13:43;7.35;;;4.45;;
1402;SDS011;696;48.546;9.896;2023-11-18T07:16:09;6.13;;;4.50;;
1402;SDS011;696;48.546;9.896;2023-11-18T07:18:35;8.10;;;4.90;;
1402;SDS011;696;48.546;9.896;2023-11-18T07:21:02;7.82;;;5.15;;
1402;SDS011;696;48.546;9.896;2023-11-18T07:23:29;10.95;;;5.85;;
1402;SDS011;696;48.546;9.896;2023-11-18T07:25:55;10.80;;;5.13;;
1402;SDS011;696;48.546;9.896;2023-11-18T07:28:21;12.45;;;6.32;;
1402;SDS011;696;48.546;9.896;2023-11-18T07:30:47;8.40;;;5.70;;
1402;SDS011;696;48.546;9.896;2023-11-18T07:33:16;8.77;;;5.15;;
1402;SDS011;696;48.546;9.896;2023-11-18T07:35:42;6.30;;;3.65;;
1402;SDS011;696;48.546;9.896;2023-11-18T07:38:08;5.22;;;4.20;;
1402;SDS011;696;48.546;9.896;2023-11-18T07:40:35;5.13;;;3.70;;
1402;SDS011;696;48.546;9.896;2023-11-18T07:43:02;9.00;;;5.35;;
1402;SDS011;696;48.546;9.896;2023-11-18T07:45:28;9.25;;;6.43;;
1402;SDS011;696;48.546;9.896;2023-11-18T07:47:54;9.25;;;6.15;;
1402;SDS011;696;48.546;9.896;2023-11-18T07:50:19;13.75;;;5.13;;
1402;SDS011;696;48.546;9.896;2023-11-18T07:52:46;8.75;;;4.85;;
1402;SDS011;696;48.546;9.896;2023-11-18T07:55:13;7.40;;;5.30;;
1402;SDS011;696;48.546;9.896;2023-11-18T07:57:39;11.32;;;6.18;;
1402;SDS011;696;48.546;9.896;2023-11-18T08:00:05;8.70;;;6.03;;
1402;SDS011;696;48.546;9.896;2023-11-18T08:02:34;8.20;;;5.75;;
1402;SDS011;696;48.546;9.896;2023-11-18T08:05:06;8.93;;;5.70;;
1402;SDS011;696;48.546;9.896;2023-11-18T08:07:38;11.95;;;4.80;;
1402;SDS011;696;48.546;9.896;2023-11-18T08:10:03;6.68;;;4.55;;
1402;SDS011;696;48.546;9.896;2023-11-18T08:12:32;9.63;;;4.43;;
1402;SDS011;696;48.546;9.896;2023-11-18T08:14:58;5.88;;;3.78;;
1402;SDS011;696;48.546;9.896;2023-11-18T08:17:25;6.38;;;4.20;;
1402;SDS011;696;48.546;9.896;2023-11-18T08:19:51;4.85;;;3.65;;
1402;SDS011;696;48.546;9.896;2023-11-18T08:22:17;7.80;;;4.55;;
1402;SDS011;696;48.546;9.896;2023-11-18T08:24:43;7.50;;;4.32;;
1402;SDS011;696;48.546;9.896;2023-11-18T08:27:09;5.15;;;4.28;;
1402;SDS011;696;48.546;9.896;2023-11-18T08:29:35;7.32;;;4.30;;
1402;SDS011;696;48.546;9.896;2023-11-18T08:32:00;8.00;;;4.93;;
1402;SDS011;696;48.546;9.896;2023-11-18T08:34:26;7.55;;;5.40;;
1402;SDS011;696;48.546;9.896;2023-11-18T08:36:52;23.02;;;8.63;;
1402;SDS011;696;48.546;9.896;2023-11-18T08:39:17;17.63;;;8.00;;
1402;SDS011;696;48.546;9.896;2023-11-18T08:41:45;21.95;;;7.13;;
1402;SDS011;696;48.546;9.896;2023-11-18T08:44:15;21.13;;;8.85;;
1402;SDS011;696;48.546;9.896;2023-11-18T08:46:41;38.13;;;8.25;;
1402;SDS011;696;48.546;9.896;2023-11-18T08:49:07;26.08;;;6.85;;
1402;SDS011;696;48.546;9.896;2023-11-18T08:51:36;31.17;;;8.02;;
1402;SDS011;696;48.546;9.896;2023-11-18T08:54:03;26.15;;;7.35;;
1402;SDS011;696;48.546;9.896;2023-11-18T08:56:47;36.10;;;8.82;;
1402;SDS011;696;48.546;9.896;2023-11-18T08:59:17;48.88;;;10.23;;
1402;SDS011;696;48.546;9.896;2023-11-18T09:01:45;15.60;;;6.00;;
1402;SDS011;696;48.546;9.896;2023-11-18T09:04:13;10.52;;;4.10;;
1402;SDS011;696;48.546;9.896;2023-11-18T09:06:39;7.80;;;3.92;;
1402;SDS011;696;48.546;9.896;2023-11-18T09:09:05;5.53;;;3.58;;
1402;SDS011;696;48.546;9.896;2023-11-18T09:11:35;15.30;;;4.43;;
1402;SDS011;696;48.546;9.896;2023-11-18T09:14:02;4.60;;;2.95;;
1402;SDS011;696;48.546;9.896;2023-11-18T09:16:28;4.43;;;3.33;;
1402;SDS011;696;48.546;9.896;2023-11-18T09:18:54;3.25;;;2.42;;
1402;SDS011;696;48.546;9.896;2023-11-18T09:21:21;3.38;;;2.65;;
1402;SDS011;696;48.546;9.896;2023-11-18T09:23:50;15.30;;;4.93;;
1402;SDS011;696;48.546;9.896;2023-11-18T09:26:15;16.88;;;4.53;;
1402;SDS011;696;48.546;9.896;2023-11-18T09:28:42;11.18;;;4.38;;
1402;SDS011;696;48.546;9.896;2023-11-18T09:31:09;10.02;;;2.67;;
1402;SDS011;696;48.546;9.896;2023-11-18T09:33:38;4.55;;;2.60;;
1402;SDS011;696;48.546;9.896;2023-11-18T09:36:05;4.10;;;2.22;;
1402;SDS011;696;48.546;9.896;2023-11-18T09:38:33;2.78;;;2.20;;
1402;SDS011;696;48.546;9.896;2023-11-18T09:41:05;3.28;;;1.88;;
1402;SDS011;696;48.546;9.896;2023-11-18T09:43:35;2.70;;;2.20;;
1402;SDS011;696;48.546;9.896;2023-11-18T09:46:09;12.32;;;2.70;;
1402;SDS011;696;48.546;9.896;2023-11-18T09:48:44;17.20;;;2.83;;
1402;SDS011;696;48.546;9.896;2023-11-18T09:51:28;18.02;;;4.40;;
1402;SDS011;696;48.546;9.896;2023-11-18T09:53:59;18.58;;;4.47;;
1402;SDS011;696;48.546;9.896;2023-11-18T09:56:30;8.98;;;4.72;;
1402;SDS011;696;48.546;9.896;2023-11-18T09:59:14;19.02;;;6.20;;
1402;SDS011;696;48.546;9.896;2023-11-18T10:02:08;13.70;;;4.22;;
1402;SDS011;696;48.546;9.896;2023-11-18T10:04:35;5.82;;;4.05;;
1402;SDS011;696;48.546;9.896;2023-11-18T10:07:03;9.95;;;4.80;;
1402;SDS011;696;48.546;9.896;2023-11-18T10:09:28;17.50;;;5.32;;
1402;SDS011;696;48.546;9.896;2023-11-18T10:11:54;16.83;;;4.72;;
1402;SDS011;696;48.546;9.896;2023-11-18T10:14:28;11.05;;;4.85;;
1402;SDS011;696;48.546;9.896;2023-11-18T10:16:54;10.00;;;4.10;;
1402;SDS011;696;48.546;9.896;2023-11-18T10:19:20;41.00;;;6.93;;
1402;SDS011;696;48.546;9.896;2023-11-18T10:21:46;8.52;;;5.00;;
1402;SDS011;696;48.546;9.896;2023-11-18T10:24:14;7.68;;;4.90;;
1402;SDS011;696;48.546;9.896;2023-11-18T10:26:44;9.73;;;5.07;;
1402;SDS011;696;48.546;9.896;2023-11-18T10:29:10;11.40;;;5.10;;
1402;SDS011;696;48.546;9.896;2023-11-18T10:31:39;12.15;;;6.07;;
1402;SDS011;696;48.546;9.896;2023-11-18T10:34:10;16.38;;;6.68;;
1402;SDS011;696;48.546;9.896;2023-11-18T10:36:37;23.42;;;5.95;;
1402;SDS011;696;48.546;9.896;2023-11-18T10:39:02;15.65;;;6.68;;
1402;SDS011;696;48.546;9.896;2023-11-18T10:41:40;9.85;;;5.88;;
1402;SDS011;696;48.546;9.896;2023-11-18T10:44:08;41.58;;;8.48;;
1402;SDS011;696;48.546;9.896;2023-11-18T10:46:34;18.73;;;8.45;;
1402;SDS011;696;48.546;9.896;2023-11-18T10:49:01;20.75;;;7.30;;
1402;SDS011;696;48.546;9.896;2023-11-18T10:51:26;13.18;;;6.25;;
1402;SDS011;696;48.546;9.896;2023-11-18T10:53:52;18.08;;;7.05;;
1402;SDS011;696;48.546;9.896;2023-11-18T10:56:25;16.85;;;7.63;;
1402;SDS011;696;48.546;9.896;2023-11-18T10:58:52;12.10;;;8.05;;
1402;SDS011;696;48.546;9.896;2023-11-18T11:01:28;15.10;;;9.23;;
1402;SDS011;696;48.546;9.896;2023-11-18T11:03:58;33.05;;;11.27;;
1402;SDS011;696;48.546;9.896;2023-11-18T11:06:24;27.30;;;11.20;;
1402;SDS011;696;48.546;9.896;2023-11-18T11:08:51;25.02;;;11.90;;
1402;SDS011;696;48.546;9.896;2023-11-18T11:11:21;22.55;;;10.55;;
1402;SDS011;696;48.546;9.896;2023-11-18T11:13:58;37.22;;;10.25;;
1402;SDS011;696;48.546;9.896;2023-11-18T11:16:44;19.45;;;9.77;;
1402;SDS011;696;48.546;9.896;2023-11-18T11:19:34;24.38;;;10.23;;
1402;SDS011;696;48.546;9.896;2023-11-18T11:22:35;21.38;;;9.48;;
1402;SDS011;696;48.546;9.896;2023-11-18T11:25:14;22.58;;;9.52;;
1402;SDS011;696;48.546;9.896;2023-11-18T11:27:50;17.13;;;9.43;;
1402;SDS011;696;48.546;9.896;2023-11-18T11:30:40;16.63;;;9.10;;
1402;SDS011;696;48.546;9.896;2023-11-18T11:33:13;19.85;;;8.20;;
1402;SDS011;696;48.546;9.896;2023-11-18T11:35:45;13.50;;;6.60;;
1402;SDS011;696;48.546;9.896;2023-11-18T11:38:14;12.63;;;6.97;;
1402;SDS011;696;48.546;9.896;2023-11-18T11:40:41;18.13;;;6.40;;
1402;SDS011;696;48.546;9.896;2023-11-18T11:43:07;22.92;;;6.40;;
1402;SDS011;696;48.546;9.896;2023-11-18T11:45:35;19.25;;;6.65;;
1402;SDS011;696;48.546;9.896;2023-11-18T11:48:01;24.60;;;6.80;;
1402;SDS011;696;48.546;9.896;2023-11-18T11:51:16;12.82;;;5.50;;
1402;SDS011;696;48.546;9.896;2023-11-18T11:54:00;9.00;;;4.87;;
1402;SDS011;696;48.546;9.896;2023-11-18T11:56:39;18.75;;;5.95;;
1402;SDS011;696;48.546;9.896;2023-11-18T11:59:11;12.20;;;5.85;;
1402;SDS011;696;48.546;9.896;2023-11-18T12:01:37;9.23;;;5.70;;
1402;SDS011;696;48.546;9.896;2023-11-18T12:04:09;13.10;;;6.43;;
1402;SDS011;696;48.546;9.896;2023-11-18T12:06:46;13.30;;;6.85;;
1402;SDS011;696;48.546;9.896;2023-11-18T12:09:13;13.32;;;6.45;;
1402;SDS011;696;48.546;9.896;2023-11-18T12:11:44;12.43;;;4.93;;
1402;SDS011;696;48.546;9.896;2023-11-18T12:14:13;9.00;;;5.82;;
1402;SDS011;696;48.546;9.896;2023-11-18T12:19:36;11.43;;;5.43;;
1402;SDS011;696;48.546;9.896;2023-11-18T12:22:15;9.07;;;4.85;;
1402;SDS011;696;48.546;9.896;2023-11-18T12:28:05;9.20;;;4.90;;
1402;SDS011;696;48.546;9.896;2023-11-18T12:32:57;10.82;;;4.43;;
1402;SDS011;696;48.546;9.896;2023-11-18T12:46:50;10.50;;;4.05;;
1402;SDS011;696;48.546;9.896;2023-11-18T12:49:18;5.45;;;3.45;;
1402;SDS011;696;48.546;9.896;2023-11-18T12:51:51;5.35;;;3.95;;
1402;SDS011;696;48.546;9.896;2023-11-18T12:54:18;7.53;;;3.97;;
1402;SDS011;696;48.546;9.896;2023-11-18T12:56:44;7.70;;;4.03;;
1402;SDS011;696;48.546;9.896;2023-11-18T12:59:13;6.18;;;4.13;;
1402;SDS011;696;48.546;9.896;2023-11-18T13:01:43;7.35;;;4.05;;
1402;SDS011;696;48.546;9.896;2023-11-18T13:04:16;8.43;;;4.18;;
1402;SDS011;696;48.546;9.896;2023-11-18T13:06:45;5.00;;;3.35;;
1402;SDS011;696;48.546;9.896;2023-11-18T13:09:12;5.70;;;4.07;;
1402;SDS011;696;48.546;9.896;2023-11-18T13:11:50;10.80;;;4.35;;
1402;SDS011;696;48.546;9.896;2023-11-18T13:14:17;12.48;;;4.25;;
1402;SDS011;696;48.546;9.896;2023-11-18T13:16:43;5.82;;;3.47;;
1402;SDS011;696;48.546;9.896;2023-11-18T13:19:11;6.72;;;4.47;;
1402;SDS011;696;48.546;9.896;2023-11-18T13:21:36;6.50;;;3.83;;
1402;SDS011;696;48.546;9.896;2023-11-18T13:24:02;9.13;;;3.38;;
1402;SDS011;696;48.546;9.896;2023-11-18T13:26:30;5.20;;;3.38;;
1402;SDS011;696;48.546;9.896;2023-11-18T13:28:58;6.82;;;3.78;;
1402;SDS011;696;48.546;9.896;2023-11-18T13:31:24;5.40;;;3.65;;
1402;SDS011;696;48.546;9.896;2023-11-18T13:33:49;5.80;;;3.50;;
1402;SDS011;696;48.546;9.896;2023-11-18T13:36:15;8.68;;;3.85;;
1402;SDS011;696;48.546;9.896;2023-11-18T13:38:40;5.85;;;3.63;;
1402;SDS011;696;48.546;9.896;2023-11-18T13:41:06;13.88;;;3.67;;
1402;SDS011;696;48.546;9.896;2023-11-18T13:43:46;6.88;;;3.63;;
1402;SDS011;696;48.546;9.896;2023-11-18T13:46:17;3.85;;;2.78;;
1402;SDS011;696;48.546;9.896;2023-11-18T13:48:46;4.32;;;2.97;;
1402;SDS011;696;48.546;9.896;2023-11-18T13:51:14;5.00;;;3.05;;
1402;SDS011;696;48.546;9.896;2023-11-18T13:53:42;11.25;;;3.00;;
1402;SDS011;696;48.546;9.896;2023-11-18T13:56:11;8.75;;;3.15;;
1402;SDS011;696;48.546;9.896;2023-11-18T13:58:37;5.22;;;3.00;;
1402;SDS011;696;48.546;9.896;2023-11-18T14:01:06;19.70;;;4.88;;
1402;SDS011;696;48.546;9.896;2023-11-18T14:03:34;4.38;;;3.30;;
1402;SDS011;696;48.546;9.896;2023-11-18T14:06:01;27.27;;;4.80;;
1402;SDS011;696;48.546;9.896;2023-11-18T14:08:28;11.85;;;3.97;;
1402;SDS011;696;48.546;9.896;2023-11-18T14:10:54;10.20;;;4.40;;
1402;SDS011;696;48.546;9.896;2023-11-18T14:13:20;14.10;;;5.40;;
1402;SDS011;696;48.546;9.896;2023-11-18T14:15:47;33.05;;;7.05;;
1402;SDS011;696;48.546;9.896;2023-11-18T14:18:14;31.35;;;7.57;;
1402;SDS011;696;48.546;9.896;2023-11-18T14:20:40;24.27;;;6.25;;
1402;SDS011;696;48.546;9.896;2023-11-18T14:23:06;15.68;;;5.18;;
1402;SDS011;696;48.546;9.896;2023-11-18T14:25:31;16.20;;;6.07;;
1402;SDS011;696;48.546;9.896;2023-11-18T14:27:57;47.03;;;9.98;;
1402;SDS011;696;48.546;9.896;2023-11-18T14:30:23;39.90;;;6.82;;
1402;SDS011;696;48.546;9.896;2023-11-18T14:32:51;17.83;;;5.18;;
1402;SDS011;696;48.546;9.896;2023-11-18T14:35:16;16.65;;;5.07;;
1402;SDS011;696;48.546;9.896;2023-11-18T14:37:45;17.17;;;5.80;;
1402;SDS011;696;48.546;9.896;2023-11-18T14:40:14;14.65;;;5.00;;
1402;SDS011;696;48.546;9.896;2023-11-18T14:42:45;18.92;;;5.53;;
1402;SDS011;696;48.546;9.896;2023-11-18T14:45:12;15.25;;;5.35;;
1402;SDS011;696;48.546;9.896;2023-11-18T14:47:38;13.10;;;4.85;;
1402;SDS011;696;48.546;9.896;2023-11-18T14:50:04;12.00;;;4.95;;
1402;SDS011;696;48.546;9.896;2023-11-18T14:52:36;28.83;;;8.45;;
1402;SDS011;696;48.546;9.896;2023-11-18T14:55:05;32.45;;;7.80;;
1402;SDS011;696;48.546;9.896;2023-11-18T14:57:31;24.88;;;6.80;;
1402;SDS011;696;48.546;9.896;2023-11-18T14:59:57;28.40;;;6.68;;
1402;SDS011;696;48.546;9.896;2023-11-18T15:02:24;7.63;;;3.92;;
1402;SDS011;696;48.546;9.896;2023-11-18T15:04:50;7.10;;;3.88;;
1402;SDS011;696;48.546;9.896;2023-11-18T15:07:17;16.02;;;3.42;;
1402;SDS011;696;48.546;9.896;2023-11-18T15:09:42;5.03;;;3.22;;
1402;SDS011;696;48.546;9.896;2023-11-18T15:12:08;11.73;;;3.40;;
1402;SDS011;696;48.546;9.896;2023-11-18T15:14:34;7.53;;;3.05;;
1402;SDS011;696;48.546;9.896;2023-11-18T15:16:59;5.82;;;2.60;;
1402;SDS011;696;48.546;9.896;2023-11-18T15:19:25;3.58;;;2.70;;
1402;SDS011;696;48.546;9.896;2023-11-18T15:21:52;4.30;;;2.70;;
1402;SDS011;696;48.546;9.896;2023-11-18T15:24:18;5.97;;;3.08;;
1402;SDS011;696;48.546;9.896;2023-11-18T15:26:44;6.75;;;3.10;;
1402;SDS011;696;48.546;9.896;2023-11-18T15:29:09;6.80;;;3.20;;
1402;SDS011;696;48.546;9.896;2023-11-18T15:31:40;9.60;;;3.65;;
1402;SDS011;696;48.546;9.896;2023-11-18T15:34:05;8.52;;;4.15;;
1402;SDS011;696;48.546;9.896;2023-11-18T15:36:31;7.40;;;3.95;;
1402;SDS011;696;48.546;9.896;2023-11-18T15:38:57;8.45;;;4.13;;
1402;SDS011;696;48.546;9.896;2023-11-18T15:41:29;7.63;;;3.55;;
1402;SDS011;696;48.546;9.896;2023-11-18T15:43:55;9.95;;;4.15;;
1402;SDS011;696;48.546;9.896;2023-11-18T15:46:21;9.50;;;3.90;;
1402;SDS011;696;48.546;9.896;2023-11-18T15:48:46;6.43;;;4.15;;
1402;SDS011;696;48.546;9.896;2023-11-18T15:51:12;9.60;;;4.35;;